sensor_id;sensor_type;location;lat;lon;timestamp;temperature;humidity
8067;DHT22;4076;48.076;9.118;2022-07-09T00:02:17;10.00;99.90
8067;DHT22;4076;48.076;9.118;2022-07-09T00:04:42;10.10;99.90
8067;DHT22;4076;48.076;9.118;2022-07-09T00:07:08;10.10;99.90
8067;DHT22;4076;48.076;9.118;2022-07-09T00:09:34;10.20;99.90
8067;DHT22;4076;48.076;9.118;2022-07-09T00:11:59;10.20;99.90
8067;DHT22;4076;48.076;9.118;2022-07-09T00:14:26;10.10;99.90
8067;DHT22;4076;48.076;9.118;2022-07-09T00:16:52;10.00;99.90
8067;DHT22;4076;48.076;9.118;2022-07-09T00:19:18;9.90;99.90
8067;DHT22;4076;48.076;9.118;2022-07-09T00:21:43;9.90;99.90
8067;DHT22;4076;48.076;9.118;2022-07-09T00:24:09;10.00;99.90
8067;DHT22;4076;48.076;9.118;2022-07-09T00:26:35;10.10;99.90
8067;DHT22;4076;48.076;9.118;2022-07-09T00:29:00;10.00;99.90
8067;DHT22;4076;48.076;9.118;2022-07-09T00:31:26;9.90;99.90
8067;DHT22;4076;48.076;9.118;2022-07-09T00:33:51;9.80;99.90
8067;DHT22;4076;48.076;9.118;2022-07-09T00:36:18;9.90;99.90
8067;DHT22;4076;48.076;9.118;2022-07-09T00:38:43;10.00;99.90
8067;DHT22;4076;48.076;9.118;2022-07-09T00:41:09;9.80;99.90
8067;DHT22;4076;48.076;9.118;2022-07-09T00:43:35;9.70;99.90
8067;DHT22;4076;48.076;9.118;2022-07-09T00:46:00;9.70;99.90
8067;DHT22;4076;48.076;9.118;2022-07-09T00:48:26;9.60;99.90
8067;DHT22;4076;48.076;9.118;2022-07-09T00:50:53;9.50;99.90
8067;DHT22;4076;48.076;9.118;2022-07-09T00:53:21;9.50;99.90
8067;DHT22;4076;48.076;9.118;2022-07-09T00:55:48;9.60;99.90
8067;DHT22;4076;48.076;9.118;2022-07-09T00:58:17;9.70;99.90
8067;DHT22;4076;48.076;9.118;2022-07-09T01:00:44;9.60;99.90
8067;DHT22;4076;48.076;9.118;2022-07-09T01:03:10;9.50;99.90
8067;DHT22;4076;48.076;9.118;2022-07-09T01:05:35;9.50;99.90
8067;DHT22;4076;48.076;9.118;2022-07-09T01:08:03;9.40;99.90
8067;DHT22;4076;48.076;9.118;2022-07-09T01:10:30;9.40;99.90
8067;DHT22;4076;48.076;9.118;2022-07-09T01:12:55;9.40;99.90
8067;DHT22;4076;48.076;9.118;2022-07-09T01:15:21;9.50;99.90
8067;DHT22;4076;48.076;9.118;2022-07-09T01:17:47;9.50;99.90
8067;DHT22;4076;48.076;9.118;2022-07-09T01:20:12;9.50;99.90
8067;DHT22;4076;48.076;9.118;2022-07-09T01:22:38;9.40;99.90
8067;DHT22;4076;48.076;9.118;2022-07-09T01:25:07;9.30;99.90
8067;DHT22;4076;48.076;9.118;2022-07-09T01:27:37;9.20;99.90
8067;DHT22;4076;48.076;9.118;2022-07-09T01:30:04;9.30;99.90
8067;DHT22;4076;48.076;9.118;2022-07-09T01:32:30;9.30;99.90
8067;DHT22;4076;48.076;9.118;2022-07-09T01:34:55;9.40;99.90
8067;DHT22;4076;48.076;9.118;2022-07-09T01:37:21;9.60;99.90
8067;DHT22;4076;48.076;9.118;2022-07-09T01:39:47;9.60;99.90
8067;DHT22;4076;48.076;9.118;2022-07-09T01:42:16;9.50;99.90
8067;DHT22;4076;48.076;9.118;2022-07-09T01:44:42;9.60;99.90
8067;DHT22;4076;48.076;9.118;2022-07-09T01:47:08;9.70;99.90
8067;DHT22;4076;48.076;9.118;2022-07-09T01:49:33;9.70;99.90
8067;DHT22;4076;48.076;9.118;2022-07-09T01:51:59;9.70;99.90
8067;DHT22;4076;48.076;9.118;2022-07-09T01:54:24;9.70;99.90
8067;DHT22;4076;48.076;9.118;2022-07-09T01:56:50;9.50;99.90
8067;DHT22;4076;48.076;9.118;2022-07-09T01:59:15;9.30;99.90
8067;DHT22;4076;48.076;9.118;2022-07-09T02:01:41;9.20;99.90
8067;DHT22;4076;48.076;9.118;2022-07-09T02:04:07;9.20;99.90
8067;DHT22;4076;48.076;9.118;2022-07-09T02:06:32;9.20;99.90
8067;DHT22;4076;48.076;9.118;2022-07-09T02:08:58;9.20;99.90
8067;DHT22;4076;48.076;9.118;2022-07-09T02:11:23;9.30;99.90
8067;DHT22;4076;48.076;9.118;2022-07-09T02:13:49;9.20;99.90
8067;DHT22;4076;48.076;9.118;2022-07-09T02:16:15;9.00;99.90
8067;DHT22;4076;48.076;9.118;2022-07-09T02:18:40;9.00;99.90
8067;DHT22;4076;48.076;9.118;2022-07-09T02:21:06;8.90;99.90
8067;DHT22;4076;48.076;9.118;2022-07-09T02:23:32;8.90;99.90
8067;DHT22;4076;48.076;9.118;2022-07-09T02:25:58;8.80;99.90
8067;DHT22;4076;48.076;9.118;2022-07-09T02:28:23;8.80;99.90
8067;DHT22;4076;48.076;9.118;2022-07-09T02:30:49;8.70;99.90
8067;DHT22;4076;48.076;9.118;2022-07-09T02:33:16;8.60;99.90
8067;DHT22;4076;48.076;9.118;2022-07-09T02:35:41;8.70;99.90
8067;DHT22;4076;48.076;9.118;2022-07-09T02:38:08;8.70;99.90
8067;DHT22;4076;48.076;9.118;2022-07-09T02:40:34;8.60;99.90
8067;DHT22;4076;48.076;9.118;2022-07-09T02:42:59;8.70;99.90
8067;DHT22;4076;48.076;9.118;2022-07-09T02:45:25;9.00;99.90
8067;DHT22;4076;48.076;9.118;2022-07-09T02:47:51;9.10;99.90
8067;DHT22;4076;48.076;9.118;2022-07-09T02:50:17;9.00;99.90
8067;DHT22;4076;48.076;9.118;2022-07-09T02:52:42;8.90;99.90
8067;DHT22;4076;48.076;9.118;2022-07-09T02:55:08;8.80;99.90
8067;DHT22;4076;48.076;9.118;2022-07-09T02:57:34;8.70;99.90
8067;DHT22;4076;48.076;9.118;2022-07-09T02:59:59;8.70;99.90
8067;DHT22;4076;48.076;9.118;2022-07-09T03:02:25;8.90;99.90
8067;DHT22;4076;48.076;9.118;2022-07-09T03:04:50;9.10;99.90
8067;DHT22;4076;48.076;9.118;2022-07-09T03:07:16;9.10;99.90
8067;DHT22;4076;48.076;9.118;2022-07-09T03:09:42;9.00;99.90
8067;DHT22;4076;48.076;9.118;2022-07-09T03:12:08;9.00;99.90
8067;DHT22;4076;48.076;9.118;2022-07-09T03:14:34;9.10;99.90
8067;DHT22;4076;48.076;9.118;2022-07-09T03:16:59;9.00;99.90
8067;DHT22;4076;48.076;9.118;2022-07-09T03:19:25;9.00;99.90
8067;DHT22;4076;48.076;9.118;2022-07-09T03:21:51;9.00;99.90
8067;DHT22;4076;48.076;9.118;2022-07-09T03:24:16;9.00;99.90
8067;DHT22;4076;48.076;9.118;2022-07-09T03:26:42;9.00;99.90
8067;DHT22;4076;48.076;9.118;2022-07-09T03:29:08;8.90;99.90
8067;DHT22;4076;48.076;9.118;2022-07-09T03:31:33;9.00;99.90
8067;DHT22;4076;48.076;9.118;2022-07-09T03:33:59;9.00;99.90
8067;DHT22;4076;48.076;9.118;2022-07-09T03:36:25;9.10;99.90
8067;DHT22;4076;48.076;9.118;2022-07-09T03:38:51;9.00;99.90
8067;DHT22;4076;48.076;9.118;2022-07-09T03:41:16;9.00;99.90
8067;DHT22;4076;48.076;9.118;2022-07-09T03:43:42;9.00;99.90
8067;DHT22;4076;48.076;9.118;2022-07-09T03:46:07;9.00;99.90
8067;DHT22;4076;48.076;9.118;2022-07-09T03:48:33;8.90;99.90
8067;DHT22;4076;48.076;9.118;2022-07-09T03:50:59;8.90;99.90
8067;DHT22;4076;48.076;9.118;2022-07-09T03:53:25;8.90;99.90
8067;DHT22;4076;48.076;9.118;2022-07-09T03:55:54;8.90;99.90
8067;DHT22;4076;48.076;9.118;2022-07-09T03:58:19;8.90;99.90
8067;DHT22;4076;48.076;9.118;2022-07-09T04:00:45;8.90;99.90
8067;DHT22;4076;48.076;9.118;2022-07-09T04:03:11;8.90;99.90
8067;DHT22;4076;48.076;9.118;2022-07-09T04:05:36;8.90;99.90
8067;DHT22;4076;48.076;9.118;2022-07-09T04:08:02;8.90;99.90
8067;DHT22;4076;48.076;9.118;2022-07-09T04:10:28;8.80;99.90
8067;DHT22;4076;48.076;9.118;2022-07-09T04:12:54;8.70;99.90
8067;DHT22;4076;48.076;9.118;2022-07-09T04:15:20;8.70;99.90
8067;DHT22;4076;48.076;9.118;2022-07-09T04:17:46;8.80;99.90
8067;DHT22;4076;48.076;9.118;2022-07-09T04:20:12;9.00;99.90
8067;DHT22;4076;48.076;9.118;2022-07-09T04:22:37;9.00;99.90
8067;DHT22;4076;48.076;9.118;2022-07-09T04:25:03;9.00;99.90
8067;DHT22;4076;48.076;9.118;2022-07-09T04:27:29;9.10;99.90
8067;DHT22;4076;48.076;9.118;2022-07-09T04:29:55;9.20;99.90
8067;DHT22;4076;48.076;9.118;2022-07-09T04:32:20;9.20;99.90
8067;DHT22;4076;48.076;9.118;2022-07-09T04:34:46;9.10;99.90
8067;DHT22;4076;48.076;9.118;2022-07-09T04:37:11;9.20;99.90
8067;DHT22;4076;48.076;9.118;2022-07-09T04:39:37;9.20;99.90
8067;DHT22;4076;48.076;9.118;2022-07-09T04:42:03;9.20;99.90
8067;DHT22;4076;48.076;9.118;2022-07-09T04:44:28;9.30;99.90
8067;DHT22;4076;48.076;9.118;2022-07-09T04:46:54;9.50;99.90
8067;DHT22;4076;48.076;9.118;2022-07-09T04:49:20;9.90;99.90
8067;DHT22;4076;48.076;9.118;2022-07-09T04:51:46;10.30;99.90
8067;DHT22;4076;48.076;9.118;2022-07-09T04:54:11;10.90;99.90
8067;DHT22;4076;48.076;9.118;2022-07-09T04:56:37;11.30;99.90
8067;DHT22;4076;48.076;9.118;2022-07-09T04:59:03;11.60;99.90
8067;DHT22;4076;48.076;9.118;2022-07-09T05:01:29;11.70;99.90
8067;DHT22;4076;48.076;9.118;2022-07-09T05:03:56;11.80;99.90
8067;DHT22;4076;48.076;9.118;2022-07-09T05:06:21;11.90;99.90
8067;DHT22;4076;48.076;9.118;2022-07-09T05:08:47;12.00;99.90
8067;DHT22;4076;48.076;9.118;2022-07-09T05:11:13;12.30;99.90
8067;DHT22;4076;48.076;9.118;2022-07-09T05:13:39;12.60;99.90
8067;DHT22;4076;48.076;9.118;2022-07-09T05:16:06;12.70;99.90
8067;DHT22;4076;48.076;9.118;2022-07-09T05:18:32;12.70;99.90
8067;DHT22;4076;48.076;9.118;2022-07-09T05:20:58;12.80;99.90
8067;DHT22;4076;48.076;9.118;2022-07-09T05:23:23;13.00;99.90
8067;DHT22;4076;48.076;9.118;2022-07-09T05:25:49;13.30;99.90
8067;DHT22;4076;48.076;9.118;2022-07-09T05:28:15;13.80;99.90
8067;DHT22;4076;48.076;9.118;2022-07-09T05:30:41;14.10;99.90
8067;DHT22;4076;48.076;9.118;2022-07-09T05:33:06;14.40;99.90
8067;DHT22;4076;48.076;9.118;2022-07-09T05:35:32;14.50;99.90
8067;DHT22;4076;48.076;9.118;2022-07-09T05:37:58;14.70;99.90
8067;DHT22;4076;48.076;9.118;2022-07-09T05:40:23;14.80;99.90
8067;DHT22;4076;48.076;9.118;2022-07-09T05:42:49;14.80;99.90
8067;DHT22;4076;48.076;9.118;2022-07-09T05:45:15;15.00;99.90
8067;DHT22;4076;48.076;9.118;2022-07-09T05:47:41;15.10;99.90
8067;DHT22;4076;48.076;9.118;2022-07-09T05:50:07;15.00;99.90
8067;DHT22;4076;48.076;9.118;2022-07-09T05:52:32;15.00;99.90
8067;DHT22;4076;48.076;9.118;2022-07-09T05:54:58;15.00;99.90
8067;DHT22;4076;48.076;9.118;2022-07-09T05:57:24;15.00;99.90
8067;DHT22;4076;48.076;9.118;2022-07-09T05:59:49;15.00;99.90
8067;DHT22;4076;48.076;9.118;2022-07-09T06:02:15;15.00;99.90
8067;DHT22;4076;48.076;9.118;2022-07-09T06:04:41;15.10;99.90
8067;DHT22;4076;48.076;9.118;2022-07-09T06:07:06;15.20;99.90
8067;DHT22;4076;48.076;9.118;2022-07-09T06:09:32;15.50;99.90
8067;DHT22;4076;48.076;9.118;2022-07-09T06:11:57;15.90;99.90
8067;DHT22;4076;48.076;9.118;2022-07-09T06:14:24;16.70;99.90
8067;DHT22;4076;48.076;9.118;2022-07-09T06:16:49;17.40;99.90
8067;DHT22;4076;48.076;9.118;2022-07-09T06:19:15;18.00;99.90
8067;DHT22;4076;48.076;9.118;2022-07-09T06:21:41;18.30;97.50
8067;DHT22;4076;48.076;9.118;2022-07-09T06:24:07;18.30;94.90
8067;DHT22;4076;48.076;9.118;2022-07-09T06:26:33;18.10;93.50
8067;DHT22;4076;48.076;9.118;2022-07-09T06:29:01;17.80;92.70
8067;DHT22;4076;48.076;9.118;2022-07-09T06:31:26;17.60;93.90
8067;DHT22;4076;48.076;9.118;2022-07-09T06:33:52;17.50;95.10
8067;DHT22;4076;48.076;9.118;2022-07-09T06:36:18;17.40;95.60
8067;DHT22;4076;48.076;9.118;2022-07-09T06:38:43;17.40;96.20
8067;DHT22;4076;48.076;9.118;2022-07-09T06:41:28;17.40;96.30
8067;DHT22;4076;48.076;9.118;2022-07-09T06:43:53;17.40;96.60
8067;DHT22;4076;48.076;9.118;2022-07-09T06:46:19;17.50;95.50
8067;DHT22;4076;48.076;9.118;2022-07-09T06:48:45;17.50;96.30
8067;DHT22;4076;48.076;9.118;2022-07-09T06:51:10;17.60;96.90
8067;DHT22;4076;48.076;9.118;2022-07-09T06:53:36;17.70;96.00
8067;DHT22;4076;48.076;9.118;2022-07-09T06:56:03;17.80;96.20
8067;DHT22;4076;48.076;9.118;2022-07-09T06:58:28;17.80;95.80
8067;DHT22;4076;48.076;9.118;2022-07-09T07:00:54;18.00;95.60
8067;DHT22;4076;48.076;9.118;2022-07-09T07:03:19;18.30;95.40
8067;DHT22;4076;48.076;9.118;2022-07-09T07:05:45;18.80;94.70
8067;DHT22;4076;48.076;9.118;2022-07-09T07:08:11;19.30;94.70
8067;DHT22;4076;48.076;9.118;2022-07-09T07:10:36;20.10;93.50
8067;DHT22;4076;48.076;9.118;2022-07-09T07:13:02;21.00;92.50
8067;DHT22;4076;48.076;9.118;2022-07-09T07:15:27;21.70;87.80
8067;DHT22;4076;48.076;9.118;2022-07-09T07:17:53;21.90;73.10
8067;DHT22;4076;48.076;9.118;2022-07-09T07:20:19;21.90;69.10
8067;DHT22;4076;48.076;9.118;2022-07-09T07:22:48;21.80;69.50
8067;DHT22;4076;48.076;9.118;2022-07-09T07:25:14;21.70;69.00
8067;DHT22;4076;48.076;9.118;2022-07-09T07:27:39;21.60;67.80
8067;DHT22;4076;48.076;9.118;2022-07-09T07:30:05;21.70;64.10
8067;DHT22;4076;48.076;9.118;2022-07-09T07:32:31;21.50;58.40
8067;DHT22;4076;48.076;9.118;2022-07-09T07:34:57;21.60;60.00
8067;DHT22;4076;48.076;9.118;2022-07-09T07:37:22;21.80;60.00
8067;DHT22;4076;48.076;9.118;2022-07-09T07:39:48;21.90;58.00
8067;DHT22;4076;48.076;9.118;2022-07-09T07:42:14;21.90;57.50
8067;DHT22;4076;48.076;9.118;2022-07-09T07:44:41;22.00;57.70
8067;DHT22;4076;48.076;9.118;2022-07-09T07:47:06;22.30;56.70
8067;DHT22;4076;48.076;9.118;2022-07-09T07:49:32;22.60;54.30
8067;DHT22;4076;48.076;9.118;2022-07-09T07:51:57;23.50;55.90
8067;DHT22;4076;48.076;9.118;2022-07-09T07:54:23;24.90;53.30
8067;DHT22;4076;48.076;9.118;2022-07-09T07:56:49;26.60;50.20
8067;DHT22;4076;48.076;9.118;2022-07-09T07:59:16;28.00;44.30
8067;DHT22;4076;48.076;9.118;2022-07-09T08:01:42;29.40;43.70
8067;DHT22;4076;48.076;9.118;2022-07-09T08:04:07;30.30;40.10
8067;DHT22;4076;48.076;9.118;2022-07-09T08:06:33;30.30;40.70
8067;DHT22;4076;48.076;9.118;2022-07-09T08:09:00;30.10;38.80
8067;DHT22;4076;48.076;9.118;2022-07-09T08:11:26;30.10;38.40
8067;DHT22;4076;48.076;9.118;2022-07-09T08:13:51;30.30;37.80
8067;DHT22;4076;48.076;9.118;2022-07-09T08:16:17;31.00;37.30
8067;DHT22;4076;48.076;9.118;2022-07-09T08:18:42;32.30;36.10
8067;DHT22;4076;48.076;9.118;2022-07-09T08:21:08;33.30;32.60
8067;DHT22;4076;48.076;9.118;2022-07-09T08:23:34;34.60;32.30
8067;DHT22;4076;48.076;9.118;2022-07-09T08:26:26;35.80;30.30
8067;DHT22;4076;48.076;9.118;2022-07-09T08:28:52;37.40;29.40
8067;DHT22;4076;48.076;9.118;2022-07-09T08:31:19;37.70;27.30
8067;DHT22;4076;48.076;9.118;2022-07-09T08:33:45;36.90;27.50
8067;DHT22;4076;48.076;9.118;2022-07-09T08:36:11;36.20;28.10
8067;DHT22;4076;48.076;9.118;2022-07-09T08:38:37;36.60;29.10
8067;DHT22;4076;48.076;9.118;2022-07-09T08:41:04;37.50;27.50
8067;DHT22;4076;48.076;9.118;2022-07-09T08:43:33;38.70;26.90
8067;DHT22;4076;48.076;9.118;2022-07-09T08:45:59;39.50;25.60
8067;DHT22;4076;48.076;9.118;2022-07-09T08:48:24;40.50;25.80
8067;DHT22;4076;48.076;9.118;2022-07-09T08:50:51;41.60;25.20
8067;DHT22;4076;48.076;9.118;2022-07-09T08:53:18;42.50;24.60
8067;DHT22;4076;48.076;9.118;2022-07-09T08:55:47;43.20;24.10
8067;DHT22;4076;48.076;9.118;2022-07-09T08:58:14;43.70;24.40
8067;DHT22;4076;48.076;9.118;2022-07-09T09:00:40;44.10;23.90
8067;DHT22;4076;48.076;9.118;2022-07-09T09:03:07;44.50;23.10
8067;DHT22;4076;48.076;9.118;2022-07-09T09:05:33;44.70;23.00
8067;DHT22;4076;48.076;9.118;2022-07-09T09:07:59;44.80;22.40
8067;DHT22;4076;48.076;9.118;2022-07-09T09:10:26;44.90;22.40
8067;DHT22;4076;48.076;9.118;2022-07-09T09:12:59;45.30;22.80
8067;DHT22;4076;48.076;9.118;2022-07-09T09:15:25;45.50;21.70
8067;DHT22;4076;48.076;9.118;2022-07-09T09:17:51;45.00;21.30
8067;DHT22;4076;48.076;9.118;2022-07-09T09:20:17;44.30;21.80
8067;DHT22;4076;48.076;9.118;2022-07-09T09:22:48;42.60;22.40
8067;DHT22;4076;48.076;9.118;2022-07-09T09:25:18;40.10;23.80
8067;DHT22;4076;48.076;9.118;2022-07-09T09:27:54;38.20;24.60
8067;DHT22;4076;48.076;9.118;2022-07-09T09:30:20;37.50;25.20
8067;DHT22;4076;48.076;9.118;2022-07-09T09:32:59;36.60;26.00
8067;DHT22;4076;48.076;9.118;2022-07-09T09:35:27;35.90;26.30
8067;DHT22;4076;48.076;9.118;2022-07-09T09:37:53;33.90;26.80
8067;DHT22;4076;48.076;9.118;2022-07-09T09:40:19;33.40;27.00
8067;DHT22;4076;48.076;9.118;2022-07-09T09:42:45;32.70;28.20
8067;DHT22;4076;48.076;9.118;2022-07-09T09:45:13;33.40;28.90
8067;DHT22;4076;48.076;9.118;2022-07-09T09:47:49;34.40;28.60
8067;DHT22;4076;48.076;9.118;2022-07-09T09:50:19;33.90;27.90
8067;DHT22;4076;48.076;9.118;2022-07-09T09:52:49;33.10;28.60
8067;DHT22;4076;48.076;9.118;2022-07-09T09:55:17;32.30;29.40
8067;DHT22;4076;48.076;9.118;2022-07-09T09:57:43;31.90;29.60
8067;DHT22;4076;48.076;9.118;2022-07-09T10:00:10;31.90;31.10
8067;DHT22;4076;48.076;9.118;2022-07-09T10:02:38;31.70;29.90
8067;DHT22;4076;48.076;9.118;2022-07-09T10:05:06;31.50;29.70
8067;DHT22;4076;48.076;9.118;2022-07-09T10:07:32;31.30;30.10
8067;DHT22;4076;48.076;9.118;2022-07-09T10:09:59;30.80;30.40
8067;DHT22;4076;48.076;9.118;2022-07-09T10:12:35;30.10;31.00
8067;DHT22;4076;48.076;9.118;2022-07-09T10:15:02;29.30;31.80
8067;DHT22;4076;48.076;9.118;2022-07-09T10:17:39;28.70;33.20
8067;DHT22;4076;48.076;9.118;2022-07-09T10:20:06;28.20;34.10
8067;DHT22;4076;48.076;9.118;2022-07-09T10:22:39;28.40;34.10
8067;DHT22;4076;48.076;9.118;2022-07-09T10:25:10;28.80;32.90
8067;DHT22;4076;48.076;9.118;2022-07-09T10:27:47;28.90;33.60
8067;DHT22;4076;48.076;9.118;2022-07-09T10:33:19;29.60;34.50
8067;DHT22;4076;48.076;9.118;2022-07-09T10:35:49;29.60;34.20
8067;DHT22;4076;48.076;9.118;2022-07-09T10:38:16;29.30;34.30
8067;DHT22;4076;48.076;9.118;2022-07-09T10:40:44;29.30;34.40
8067;DHT22;4076;48.076;9.118;2022-07-09T10:43:10;29.20;33.80
8067;DHT22;4076;48.076;9.118;2022-07-09T10:45:38;28.90;34.70
8067;DHT22;4076;48.076;9.118;2022-07-09T10:48:05;29.20;33.50
8067;DHT22;4076;48.076;9.118;2022-07-09T10:50:35;29.30;33.60
8067;DHT22;4076;48.076;9.118;2022-07-09T10:53:01;29.20;34.00
8067;DHT22;4076;48.076;9.118;2022-07-09T10:55:28;29.30;34.70
8067;DHT22;4076;48.076;9.118;2022-07-09T10:57:55;29.50;33.10
8067;DHT22;4076;48.076;9.118;2022-07-09T11:00:23;29.40;32.50
8067;DHT22;4076;48.076;9.118;2022-07-09T11:03:00;29.20;34.00
8067;DHT22;4076;48.076;9.118;2022-07-09T11:05:28;28.90;34.00
8067;DHT22;4076;48.076;9.118;2022-07-09T11:10:23;28.00;35.20
8067;DHT22;4076;48.076;9.118;2022-07-09T11:12:50;27.70;34.60
8067;DHT22;4076;48.076;9.118;2022-07-09T11:15:20;27.40;34.40
8067;DHT22;4076;48.076;9.118;2022-07-09T11:18:02;27.00;34.90
8067;DHT22;4076;48.076;9.118;2022-07-09T11:20:30;26.70;35.80
8067;DHT22;4076;48.076;9.118;2022-07-09T11:22:56;26.40;37.20
8067;DHT22;4076;48.076;9.118;2022-07-09T11:25:26;26.40;37.30
8067;DHT22;4076;48.076;9.118;2022-07-09T11:27:56;26.80;37.60
8067;DHT22;4076;48.076;9.118;2022-07-09T11:30:22;27.10;37.40
8067;DHT22;4076;48.076;9.118;2022-07-09T11:32:49;27.20;36.10
8067;DHT22;4076;48.076;9.118;2022-07-09T11:35:31;27.30;38.00
8067;DHT22;4076;48.076;9.118;2022-07-09T11:37:59;27.20;36.50
8067;DHT22;4076;48.076;9.118;2022-07-09T11:40:25;27.40;37.70
8067;DHT22;4076;48.076;9.118;2022-07-09T11:42:51;27.50;37.80
8067;DHT22;4076;48.076;9.118;2022-07-09T11:45:21;27.50;37.70
8067;DHT22;4076;48.076;9.118;2022-07-09T11:47:47;27.20;36.10
8067;DHT22;4076;48.076;9.118;2022-07-09T11:50:15;26.90;35.70
8067;DHT22;4076;48.076;9.118;2022-07-09T11:52:51;26.70;35.90
8067;DHT22;4076;48.076;9.118;2022-07-09T11:55:21;26.70;37.20
8067;DHT22;4076;48.076;9.118;2022-07-09T11:58:04;26.60;36.90
8067;DHT22;4076;48.076;9.118;2022-07-09T12:00:32;26.60;37.20
8067;DHT22;4076;48.076;9.118;2022-07-09T12:02:58;26.70;37.50
8067;DHT22;4076;48.076;9.118;2022-07-09T12:07:56;26.80;35.90
8067;DHT22;4076;48.076;9.118;2022-07-09T12:10:30;26.70;36.80
8067;DHT22;4076;48.076;9.118;2022-07-09T12:12:57;26.70;37.30
8067;DHT22;4076;48.076;9.118;2022-07-09T12:15:22;26.80;37.30
8067;DHT22;4076;48.076;9.118;2022-07-09T12:17:56;26.90;37.30
8067;DHT22;4076;48.076;9.118;2022-07-09T12:20:27;27.00;36.90
8067;DHT22;4076;48.076;9.118;2022-07-09T12:22:53;27.10;37.40
8067;DHT22;4076;48.076;9.118;2022-07-09T12:25:19;27.40;38.20
8067;DHT22;4076;48.076;9.118;2022-07-09T12:27:46;27.70;37.30
8067;DHT22;4076;48.076;9.118;2022-07-09T12:30:12;27.70;35.70
8067;DHT22;4076;48.076;9.118;2022-07-09T12:32:38;27.40;35.60
8067;DHT22;4076;48.076;9.118;2022-07-09T12:35:05;27.10;35.60
8067;DHT22;4076;48.076;9.118;2022-07-09T12:37:31;26.80;36.70
8067;DHT22;4076;48.076;9.118;2022-07-09T12:39:56;26.70;37.20
8067;DHT22;4076;48.076;9.118;2022-07-09T12:42:22;26.80;37.20
8067;DHT22;4076;48.076;9.118;2022-07-09T12:44:48;26.70;35.70
8067;DHT22;4076;48.076;9.118;2022-07-09T12:47:13;26.80;37.30
8067;DHT22;4076;48.076;9.118;2022-07-09T12:49:39;26.80;37.30
8067;DHT22;4076;48.076;9.118;2022-07-09T12:52:05;26.90;37.60
8067;DHT22;4076;48.076;9.118;2022-07-09T12:54:31;26.90;37.00
8067;DHT22;4076;48.076;9.118;2022-07-09T12:56:57;26.80;37.70
8067;DHT22;4076;48.076;9.118;2022-07-09T12:59:22;26.70;38.00
8067;DHT22;4076;48.076;9.118;2022-07-09T13:01:48;26.60;38.50
8067;DHT22;4076;48.076;9.118;2022-07-09T13:04:14;26.40;38.60
8067;DHT22;4076;48.076;9.118;2022-07-09T13:06:40;26.40;37.60
8067;DHT22;4076;48.076;9.118;2022-07-09T13:09:08;26.40;38.00
8067;DHT22;4076;48.076;9.118;2022-07-09T13:11:34;26.60;37.80
8067;DHT22;4076;48.076;9.118;2022-07-09T13:14:00;26.80;37.30
8067;DHT22;4076;48.076;9.118;2022-07-09T13:16:26;26.80;36.70
8067;DHT22;4076;48.076;9.118;2022-07-09T13:18:52;26.60;36.00
8067;DHT22;4076;48.076;9.118;2022-07-09T13:21:18;26.50;36.60
8067;DHT22;4076;48.076;9.118;2022-07-09T13:23:45;26.30;37.50
8067;DHT22;4076;48.076;9.118;2022-07-09T13:26:10;26.30;38.20
8067;DHT22;4076;48.076;9.118;2022-07-09T13:28:37;26.40;38.00
8067;DHT22;4076;48.076;9.118;2022-07-09T13:31:02;26.40;37.70
8067;DHT22;4076;48.076;9.118;2022-07-09T13:33:28;26.40;37.70
8067;DHT22;4076;48.076;9.118;2022-07-09T13:35:54;26.40;38.90
8067;DHT22;4076;48.076;9.118;2022-07-09T13:38:20;26.60;38.50
8067;DHT22;4076;48.076;9.118;2022-07-09T13:40:46;26.70;38.40
8067;DHT22;4076;48.076;9.118;2022-07-09T13:43:12;26.50;37.90
8067;DHT22;4076;48.076;9.118;2022-07-09T13:45:38;26.40;38.30
8067;DHT22;4076;48.076;9.118;2022-07-09T13:48:04;26.30;38.60
8067;DHT22;4076;48.076;9.118;2022-07-09T13:50:29;26.20;38.90
8067;DHT22;4076;48.076;9.118;2022-07-09T13:52:55;26.00;37.90
8067;DHT22;4076;48.076;9.118;2022-07-09T13:55:20;25.90;38.50
8067;DHT22;4076;48.076;9.118;2022-07-09T13:57:46;25.70;39.50
8067;DHT22;4076;48.076;9.118;2022-07-09T14:00:13;25.70;40.20
8067;DHT22;4076;48.076;9.118;2022-07-09T14:02:38;25.70;39.90
8067;DHT22;4076;48.076;9.118;2022-07-09T14:05:04;25.70;39.80
8067;DHT22;4076;48.076;9.118;2022-07-09T14:07:31;25.90;39.00
8067;DHT22;4076;48.076;9.118;2022-07-09T14:09:57;25.80;38.00
8067;DHT22;4076;48.076;9.118;2022-07-09T14:12:23;25.60;38.30
8067;DHT22;4076;48.076;9.118;2022-07-09T14:14:50;25.50;39.10
8067;DHT22;4076;48.076;9.118;2022-07-09T14:17:16;25.60;39.80
8067;DHT22;4076;48.076;9.118;2022-07-09T14:19:42;25.70;40.30
8067;DHT22;4076;48.076;9.118;2022-07-09T14:22:08;26.00;40.40
8067;DHT22;4076;48.076;9.118;2022-07-09T14:24:33;26.40;38.90
8067;DHT22;4076;48.076;9.118;2022-07-09T14:27:00;26.50;38.60
8067;DHT22;4076;48.076;9.118;2022-07-09T14:29:26;26.70;38.90
8067;DHT22;4076;48.076;9.118;2022-07-09T14:31:52;26.70;38.90
8067;DHT22;4076;48.076;9.118;2022-07-09T14:34:18;26.70;38.50
8067;DHT22;4076;48.076;9.118;2022-07-09T14:36:44;26.70;38.70
8067;DHT22;4076;48.076;9.118;2022-07-09T14:39:09;26.70;39.00
8067;DHT22;4076;48.076;9.118;2022-07-09T14:41:35;26.70;38.80
8067;DHT22;4076;48.076;9.118;2022-07-09T14:44:02;26.80;38.50
8067;DHT22;4076;48.076;9.118;2022-07-09T14:46:28;26.80;39.50
8067;DHT22;4076;48.076;9.118;2022-07-09T14:48:53;26.70;38.30
8067;DHT22;4076;48.076;9.118;2022-07-09T14:51:19;26.40;38.50
8067;DHT22;4076;48.076;9.118;2022-07-09T14:53:45;26.20;38.30
8067;DHT22;4076;48.076;9.118;2022-07-09T14:56:11;26.00;38.80
8067;DHT22;4076;48.076;9.118;2022-07-09T14:58:37;26.00;39.80
8067;DHT22;4076;48.076;9.118;2022-07-09T15:01:03;26.00;40.40
8067;DHT22;4076;48.076;9.118;2022-07-09T15:03:29;26.10;41.40
8067;DHT22;4076;48.076;9.118;2022-07-09T15:05:55;26.20;41.30
8067;DHT22;4076;48.076;9.118;2022-07-09T15:08:20;26.40;40.00
8067;DHT22;4076;48.076;9.118;2022-07-09T15:10:46;26.60;40.10
8067;DHT22;4076;48.076;9.118;2022-07-09T15:13:12;26.70;40.20
8067;DHT22;4076;48.076;9.118;2022-07-09T15:15:37;26.60;39.50
8067;DHT22;4076;48.076;9.118;2022-07-09T15:18:03;26.40;39.50
8067;DHT22;4076;48.076;9.118;2022-07-09T15:20:29;26.10;39.60
8067;DHT22;4076;48.076;9.118;2022-07-09T15:22:56;25.70;41.00
8067;DHT22;4076;48.076;9.118;2022-07-09T15:25:22;25.60;41.20
8067;DHT22;4076;48.076;9.118;2022-07-09T15:27:48;25.50;40.90
8067;DHT22;4076;48.076;9.118;2022-07-09T15:30:13;25.50;41.70
8067;DHT22;4076;48.076;9.118;2022-07-09T15:32:40;25.50;41.90
8067;DHT22;4076;48.076;9.118;2022-07-09T15:35:07;25.60;41.80
8067;DHT22;4076;48.076;9.118;2022-07-09T15:37:33;25.60;42.10
8067;DHT22;4076;48.076;9.118;2022-07-09T15:39:58;25.50;42.60
8067;DHT22;4076;48.076;9.118;2022-07-09T15:42:24;25.40;40.90
8067;DHT22;4076;48.076;9.118;2022-07-09T15:44:50;25.30;40.70
8067;DHT22;4076;48.076;9.118;2022-07-09T15:47:16;25.10;40.60
8067;DHT22;4076;48.076;9.118;2022-07-09T15:49:42;25.00;40.90
8067;DHT22;4076;48.076;9.118;2022-07-09T15:52:08;25.00;41.80
8067;DHT22;4076;48.076;9.118;2022-07-09T15:54:33;24.90;41.70
8067;DHT22;4076;48.076;9.118;2022-07-09T15:56:59;24.80;42.60
8067;DHT22;4076;48.076;9.118;2022-07-09T15:59:25;24.80;41.70
8067;DHT22;4076;48.076;9.118;2022-07-09T16:01:50;24.80;41.70
8067;DHT22;4076;48.076;9.118;2022-07-09T16:04:16;24.80;41.80
8067;DHT22;4076;48.076;9.118;2022-07-09T16:06:42;24.80;41.70
8067;DHT22;4076;48.076;9.118;2022-07-09T16:09:07;24.70;41.40
8067;DHT22;4076;48.076;9.118;2022-07-09T16:11:33;24.70;41.80